createdAt,value
2022-08-21T00:02:50.173Z,79.0
2022-08-21T00:16:50.153Z,81.0
2022-08-21T00:30:50.149Z,82.0
2022-08-21T00:44:50.185Z,82.0
2022-08-21T00:58:53.500Z,81.0
2022-08-21T01:12:50.340Z,83.0
2022-08-21T01:26:50.380Z,84.0
2022-08-21T01:40:50.403Z,84.0
2022-08-21T01:54:51.050Z,84.0
2022-08-21T02:08:50.422Z,84.0
2022-08-21T02:22:50.421Z,82.0
2022-08-21T02:36:59.362Z,83.0
2022-08-21T02:50:50.442Z,82.0
2022-08-21T03:04:50.452Z,85.0
2022-08-21T03:18:50.460Z,86.0
2022-08-21T03:32:50.488Z,85.0
2022-08-21T03:46:50.541Z,86.0
2022-08-21T04:00:50.563Z,86.0
2022-08-21T04:15:50.587Z,85.0
2022-08-21T04:30:50.646Z,83.0
2022-08-21T04:45:50.753Z,85.0
2022-08-21T05:00:50.721Z,86.0
2022-08-21T05:15:50.779Z,86.0
2022-08-21T05:30:50.783Z,78.0
2022-08-21T05:45:50.811Z,77.0
2022-08-21T06:00:50.856Z,76.0
2022-08-21T06:15:50.882Z,75.0
2022-08-21T06:30:50.917Z,75.0
2022-08-21T06:45:50.919Z,72.0
2022-08-21T07:00:50.898Z,58.0
2022-08-21T07:15:50.921Z,48.0
2022-08-21T07:30:50.971Z,53.0
2022-08-21T07:45:51.446Z,51.0
2022-08-21T08:00:51.503Z,48.0
2022-08-21T08:15:51.606Z,42.0
2022-08-21T08:31:51.651Z,41.0
2022-08-21T08:46:51.679Z,42.0
2022-08-21T09:01:51.685Z,42.0
2022-08-21T09:16:51.745Z,40.0
2022-08-21T09:31:51.733Z,38.0
2022-08-21T09:46:51.781Z,39.0
2022-08-21T10:02:51.942Z,38.0
2022-08-21T10:17:51.787Z,38.0
2022-08-21T10:33:51.807Z,40.0
2022-08-21T10:49:51.811Z,40.0
2022-08-21T11:04:51.850Z,38.0
2022-08-21T11:20:51.814Z,38.0
2022-08-21T11:35:51.840Z,37.0
2022-08-21T11:51:51.866Z,38.0
2022-08-21T12:06:51.865Z,37.0
2022-08-21T12:21:51.869Z,34.0
2022-08-21T12:36:51.909Z,37.0
2022-08-21T12:51:51.948Z,34.0
2022-08-21T13:06:51.967Z,36.0
2022-08-21T13:21:52.005Z,34.0
2022-08-21T13:36:52.032Z,31.0
2022-08-21T13:51:52.004Z,34.0
2022-08-21T14:06:52.046Z,33.0
2022-08-21T14:21:52.058Z,32.0
2022-08-21T14:36:52.108Z,32.0
2022-08-21T14:51:54.393Z,28.0
2022-08-21T15:06:52.141Z,28.0
2022-08-21T15:21:52.142Z,31.0
2022-08-21T15:36:52.243Z,32.0
2022-08-21T15:51:52.320Z,30.0
2022-08-21T16:06:54.538Z,32.0
2022-08-21T16:21:52.330Z,33.0
2022-08-21T16:36:52.305Z,32.0
2022-08-21T16:51:52.319Z,34.0
2022-08-21T17:06:52.342Z,42.0
2022-08-21T17:21:52.645Z,51.0
2022-08-21T17:36:52.666Z,55.0
2022-08-21T17:51:52.683Z,61.0
2022-08-21T18:06:52.684Z,66.0
2022-08-21T18:21:52.831Z,67.0
2022-08-21T18:36:52.835Z,65.0
2022-08-21T18:50:52.871Z,68.0
2022-08-21T19:04:52.851Z,69.0
2022-08-21T19:18:52.856Z,68.0
2022-08-21T19:34:52.859Z,69.0
2022-08-21T19:48:53.053Z,69.0
2022-08-21T20:02:53.027Z,69.0
2022-08-21T20:16:53.003Z,72.0
2022-08-21T20:30:53.031Z,88.0
2022-08-21T20:44:53.048Z,90.0
2022-08-21T20:58:53.028Z,92.0
2022-08-21T21:12:53.549Z,94.0
2022-08-21T21:26:53.291Z,94.0
2022-08-21T21:40:53.012Z,95.0
2022-08-21T21:54:53.055Z,95.0
2022-08-21T22:08:53.060Z,96.0
2022-08-21T22:22:53.103Z,96.0
2022-08-21T22:36:53.031Z,96.0
2022-08-21T22:50:53.052Z,97.0
2022-08-21T23:04:53.328Z,95.0
2022-08-21T23:18:53.032Z,96.0
2022-08-21T23:32:53.061Z,96.0
2022-08-21T23:46:53.063Z,94.0
